Cox Field
KPRX : now visible

Airfield :











YOU CAN JOIN US ON...

 
LOGIN :

Register | Disclaimer

   EN    FR    IT 

 









Legend :    VFR   Marginal VFR   IFR   Intensive IFR   Very Intensive IFR
Visi :
Ceiling :
>= 8 km
>= 3000ft
5 to 8 km
1000 to 3000 ft
1500m to 5 km
500 to 1000 ft
800 to 1500m
200 to 500 ft
< 800m
< 200 ft
Symbols :   Thunderstorms  Fog  Heavy snow  Heavy precipitations  Wind > 20 kt






- Airport Elevation : 547 ft


KPRX - Cox Field

CURRENT METAR :
  • 270856Z AUTO 08005KT 10SM OVC009 13/10 A3002 RMK AO2 SLP178 T01280100 51007

EXPIRED METARs :
  • 270843Z AUTO 07006KT 10SM OVC009 12/10 A3001 RMK AO2
  • 270756Z AUTO 07007KT 10SM OVC011 12/09 A3001 RMK AO2 SLP177 T01170094
  • 270656Z AUTO 07006KT 10SM BKN013 10/08 A3000 RMK AO2 SLP175 T01000078
  • 270630Z AUTO 08005KT 10SM SCT011 10/08 A3000 RMK AO2

TAF N/A
KZFW FIR / North America



MET'MAP, your aeronautical weather chart ! - Copyright ORBIFLY December 2007 - Disclaimer

ORBIFLY MET'MAP TEAM :

Programming & Development : Alexandra Zaïnal
Concept & original design : Baudouin d'Aumeries
Assistance for programming : Marc-Olivier Méhu
Technical & hardware support : Manuel Goepfert

Contact : metmap@orbifly.com




SOURCES & CREDITS :

   NOAA       Earth
Advisory